High Wych Weather

NOAA Style Reports for High Wych, Hertfordshire


Report for 2012 Jun
                   Monthly Climatological Summary for Jun 2012

Name: High Wych Weather   City: High Wych, Sawbridgeworth   State: Herts
Elevation: 72 m  Lat: N 51° 48' 26"   Lon: E 000° 07' 20"

                  Temperature (°C), Rain (mm), Wind Speed (mph)

                                      Heat  Cool        Avg
    Mean                              Deg   Deg         Wind                 Dom
Day Temp  High   Time   Low    Time   Days  Days  Rain  Speed High   Time    Dir
----------------------------------------------------------------------------------
 1  16.2  21.5   00:00  10.9   00:00   0.0   0.0   0.3  ----   7.8   00:00   ---
 2  14.3  18.4   00:00  10.1   00:00   0.0   0.0   4.3  ----  13.3   00:00   ---
 3   9.8  11.1   13:38   8.4   00:00   0.0   0.0   8.9  ----  16.3   00:00   ---
 4  11.3  17.1   00:00   5.5   00:00   0.0   0.0   3.8  ----  17.5   00:00   ---
 5  10.7  17.3   00:00   4.1   00:00   0.0   0.0   4.3  ----  15.6   00:00   ---
 6  16.6  21.6   00:00  11.6   00:00   0.0   0.0   0.3  ----  13.3   00:00   ---
 7  15.9  20.3   00:00  11.6   00:00   0.0   0.0   8.4  ----  20.5   00:00   ---
 8  12.7  15.2   00:00  10.1   00:00   0.0   0.0   6.9  ----  19.8   00:00   ---
 9  13.6  18.9   00:00   8.2   00:00   0.0   0.0   0.0  ----  14.5   00:00   ---
10  13.7  21.7   00:00   5.7   00:00   0.0   0.0   2.0  ----   7.2   00:00   ---
11  11.5  12.7   00:00  10.2   00:00   0.0   0.0  11.2  ----  15.6   00:00   ---
12  10.6  13.9   00:00   7.2   00:00   0.0   0.0   1.5  ----  18.8   00:00   ---
13  11.6  19.6   00:00   3.6   04:33   0.0   0.0   0.0  ----   7.2   00:00   ---
14  12.4  19.0   00:00   5.8   00:00   0.0   0.0   1.5  ----  17.5   00:00   ---
15  14.2  16.7   00:00  11.6   00:00   0.0   0.0   5.3  ----  15.6   00:00   ---
16  14.8  19.8   00:00   9.8   00:00   0.0   0.0   6.9  ----  23.0   00:00   ---
17  17.2  22.9   00:00  11.4   00:00   0.0   0.0   0.0  ----  10.8   00:00   ---
18  16.2  23.1   00:00   9.3   00:00   0.0   0.0   1.0  ----   6.6   00:00   ---
19  16.4  25.6   00:00   7.2   00:00   0.0   0.0   0.0  ----   9.7   00:00   ---
20  17.7  24.9   00:00  10.4   00:00   0.0   0.0   0.0  ----  10.3   00:00   ---
21  16.8  22.9   00:00  10.6   00:00   0.0   0.0   7.9  ----  14.5   00:00   ---
22  15.0  19.6   00:00  10.4   00:00   0.0   0.0   0.5  ----  19.4   00:00   ---
23  15.2  20.6   00:00   9.7   00:00   0.0   0.0   2.3  ----  13.3   00:00   ---
24  17.9  25.0   00:00  10.9   00:00   0.0   0.0   6.9  ----  14.5   00:00   ---
25  17.9  26.3   00:00   9.6   00:00   0.0   0.0   0.0  ----   9.1   00:00   ---
26  19.5  27.1   00:00  11.9   00:00   0.0   0.0   0.0  ----  12.7   00:00   ---
27  21.3  25.8   00:00  16.7   23:59   0.0   0.0   0.0  ----  10.3   00:00   ---
28  22.4  30.8   15:13  14.0   00:00   0.0   0.0   0.0  ----  13.9   00:00   ---
29  18.1  23.5   00:00  12.6   00:00   0.0   0.0   0.0  ----  19.4   00:00   ---
30  18.3  23.7   00:00  12.8   00:00   0.0   0.0   0.0  ----  15.6   00:00   ---
----------------------------------------------------------------------------------
    15.3  30.8    28     3.6    13     0.0   0.0  84.2  ----  23.0    16     ---

Max >=  27.0:  2
Max <=   0.0:  0
Min <=   0.0:  0
Min <=  -5.0:  0
Max Rain: 11.2 on day 11
Days of Rain: 19 (>= 0.2 mm)  13 (>= 2.0 mm)  0 (>= 15.0 mm)
Heat Base: 15.0  Cool Base: 15.0  Method: Integration
:now::gauges::console::today/yesterday::month/year::records: noaa reports::annual data::wind map::monthly records::trends::longrange forecast::rainfall radar::webcam